Airfield :
LOGIN :

Register | Disclaimer

   EN    FR    IT 

 










Legend :    VFR   Marginal VFR   IFR   Intensive IFR   Very Intensive IFR
Visi :
Ceiling :
>= 8 km
>= 3000ft
5 to 8 km
1000 to 3000 ft
1500m to 5 km
500 to 1000 ft
800 to 1500m
200 to 500 ft
< 800m
< 200 ft
Symbols :   Thunderstorms  Fog  Heavy snow  Heavy precipitations  Wind > 20 kt
SIGMETs :     Misc.  Thunderstorms  Icing  Turbulence  Mountain Waves  Volcanic Ashes






- Airport Elevation : 776 ft
- IATA code : RMS


ETAR - Ramstein Air Base

CURRENT METAR :
  • 300338Z AUTO 00000KT 9000 -RA BR FEW008 SCT030 04/04 A3013 RMK AO2 DZE0259RAB36 SLP214 $

EXPIRED METARs :
  • 300250Z AUTO 00000KT 9000 -DZ BR SCT019 OVC032 04/04 A3013 RMK AO2 RAE49DZB49 SLP214 $
  • 300155Z AUTO 00000KT 9999 -RA FEW015 SCT031 04/03 A3013 RMK AO2 RAB07 SLP214 P0001 T00400034 $
  • 300107Z AUTO 00000KT 8000 -RA BR FEW046 04/03 A3013 RMK AO2 RAB07 SLP214 $

TAF TAF ETAR
Valid from the 30 at 02:00 until the 01 at 08:00 UTC


300200Z 3002/0108 VRB03KT 8000 -RA BR SCT015 BKN030 620409 QNH3014INS
BECMG 3004/3005 02006KT 5000 BR BKN005 OVC010 620408 QNH3015INS
BECMG 3008/3009 04009KT 8000 -RA SCT005 OVC015 620408 QNH3018INS
BECMG 3011/3012 04012KT 8000 -RA BKN010 620406 QNH3017INS
BECMG 3019/3020 05009KT 9999 NSW OVC010 620404 QNH3021INS
TEMPO 3022/0104 BKN005 TX08/3013Z TN03/3006Z



MET'MAP, your aeronautical weather chart ! - Copyright ORBIFLY December 2007 - Disclaimer

ORBIFLY MET'MAP TEAM :

Programming & Development : Alexandra Zaïnal
Original concept : Baudouin d'Aumeries
Technical & hardware support : Manuel Goepfert
Assistance : Marc-Olivier Méhu




SOURCES & CREDITS :

   NOAA